sensor_id;sensor_type;location;lat;lon;timestamp;temperature;humidity
11140;DHT22;5624;49.388;11.350;2023-04-28T00:00:28;8.60;63.50
11140;DHT22;5624;49.388;11.350;2023-04-28T00:02:53;8.60;63.70
11140;DHT22;5624;49.388;11.350;2023-04-28T00:05:19;8.50;64.10
11140;DHT22;5624;49.388;11.350;2023-04-28T00:07:47;8.40;64.50
11140;DHT22;5624;49.388;11.350;2023-04-28T00:10:12;8.50;64.50
11140;DHT22;5624;49.388;11.350;2023-04-28T00:12:38;8.50;64.20
11140;DHT22;5624;49.388;11.350;2023-04-28T00:15:04;8.40;64.40
11140;DHT22;5624;49.388;11.350;2023-04-28T00:17:30;8.40;64.60
11140;DHT22;5624;49.388;11.350;2023-04-28T00:19:55;8.50;64.50
11140;DHT22;5624;49.388;11.350;2023-04-28T00:22:22;8.40;64.80
11140;DHT22;5624;49.388;11.350;2023-04-28T00:24:47;8.40;64.70
11140;DHT22;5624;49.388;11.350;2023-04-28T00:27:13;8.50;64.80
11140;DHT22;5624;49.388;11.350;2023-04-28T00:29:38;8.50;64.90
11140;DHT22;5624;49.388;11.350;2023-04-28T00:32:04;8.50;64.80
11140;DHT22;5624;49.388;11.350;2023-04-28T00:34:33;8.50;65.00
11140;DHT22;5624;49.388;11.350;2023-04-28T00:37:02;8.40;65.30
11140;DHT22;5624;49.388;11.350;2023-04-28T00:39:28;8.50;65.40
11140;DHT22;5624;49.388;11.350;2023-04-28T00:41:53;8.40;65.30
11140;DHT22;5624;49.388;11.350;2023-04-28T00:44:19;8.40;65.60
11140;DHT22;5624;49.388;11.350;2023-04-28T00:46:45;8.40;65.70
11140;DHT22;5624;49.388;11.350;2023-04-28T00:49:11;8.40;65.80
11140;DHT22;5624;49.388;11.350;2023-04-28T00:51:37;8.40;65.70
11140;DHT22;5624;49.388;11.350;2023-04-28T00:54:03;8.40;65.60
11140;DHT22;5624;49.388;11.350;2023-04-28T00:56:30;8.40;65.70
11140;DHT22;5624;49.388;11.350;2023-04-28T00:58:56;8.40;65.70
11140;DHT22;5624;49.388;11.350;2023-04-28T01:01:22;8.50;65.80
11140;DHT22;5624;49.388;11.350;2023-04-28T01:03:48;8.40;65.90
11140;DHT22;5624;49.388;11.350;2023-04-28T01:06:13;8.40;66.10
11140;DHT22;5624;49.388;11.350;2023-04-28T01:08:40;8.40;66.20
11140;DHT22;5624;49.388;11.350;2023-04-28T01:11:07;8.30;66.70
11140;DHT22;5624;49.388;11.350;2023-04-28T01:13:34;8.30;66.70
11140;DHT22;5624;49.388;11.350;2023-04-28T01:16:00;8.40;66.30
11140;DHT22;5624;49.388;11.350;2023-04-28T01:18:26;8.50;66.20
11140;DHT22;5624;49.388;11.350;2023-04-28T01:20:52;8.50;66.00
11140;DHT22;5624;49.388;11.350;2023-04-28T01:23:17;8.50;66.20
11140;DHT22;5624;49.388;11.350;2023-04-28T01:25:43;8.50;65.80
11140;DHT22;5624;49.388;11.350;2023-04-28T01:28:10;8.50;65.90
11140;DHT22;5624;49.388;11.350;2023-04-28T01:30:36;8.60;65.40
11140;DHT22;5624;49.388;11.350;2023-04-28T01:33:02;8.60;65.20
11140;DHT22;5624;49.388;11.350;2023-04-28T01:35:28;8.60;65.30
11140;DHT22;5624;49.388;11.350;2023-04-28T01:37:53;8.60;65.40
11140;DHT22;5624;49.388;11.350;2023-04-28T01:40:19;8.70;65.30
11140;DHT22;5624;49.388;11.350;2023-04-28T01:42:45;8.70;65.00
11140;DHT22;5624;49.388;11.350;2023-04-28T01:45:10;8.80;65.00
11140;DHT22;5624;49.388;11.350;2023-04-28T01:47:36;8.70;65.10
11140;DHT22;5624;49.388;11.350;2023-04-28T01:50:02;8.70;65.20
11140;DHT22;5624;49.388;11.350;2023-04-28T01:52:28;8.60;65.50
11140;DHT22;5624;49.388;11.350;2023-04-28T01:54:54;8.60;65.40
11140;DHT22;5624;49.388;11.350;2023-04-28T01:57:20;8.60;65.70
11140;DHT22;5624;49.388;11.350;2023-04-28T01:59:46;8.60;65.70
11140;DHT22;5624;49.388;11.350;2023-04-28T02:02:11;8.60;65.90
11140;DHT22;5624;49.388;11.350;2023-04-28T02:04:38;8.60;65.70
11140;DHT22;5624;49.388;11.350;2023-04-28T02:07:04;8.50;66.00
11140;DHT22;5624;49.388;11.350;2023-04-28T02:09:30;8.60;65.70
11140;DHT22;5624;49.388;11.350;2023-04-28T02:11:55;8.60;65.60
11140;DHT22;5624;49.388;11.350;2023-04-28T02:14:21;8.60;65.60
11140;DHT22;5624;49.388;11.350;2023-04-28T02:16:47;8.60;65.90
11140;DHT22;5624;49.388;11.350;2023-04-28T02:19:14;8.70;65.70
11140;DHT22;5624;49.388;11.350;2023-04-28T02:21:41;8.60;65.90
11140;DHT22;5624;49.388;11.350;2023-04-28T02:24:07;8.70;65.70
11140;DHT22;5624;49.388;11.350;2023-04-28T02:26:33;8.70;65.80
11140;DHT22;5624;49.388;11.350;2023-04-28T02:28:59;8.50;66.40
11140;DHT22;5624;49.388;11.350;2023-04-28T02:31:25;8.50;66.30
11140;DHT22;5624;49.388;11.350;2023-04-28T02:33:51;8.50;66.30
11140;DHT22;5624;49.388;11.350;2023-04-28T02:36:17;8.50;66.60
11140;DHT22;5624;49.388;11.350;2023-04-28T02:38:43;8.50;66.50
11140;DHT22;5624;49.388;11.350;2023-04-28T02:41:09;8.60;66.10
11140;DHT22;5624;49.388;11.350;2023-04-28T02:43:35;8.60;66.00
11140;DHT22;5624;49.388;11.350;2023-04-28T02:46:02;8.70;65.90
11140;DHT22;5624;49.388;11.350;2023-04-28T02:48:28;8.70;66.10
11140;DHT22;5624;49.388;11.350;2023-04-28T02:50:54;8.70;66.10
11140;DHT22;5624;49.388;11.350;2023-04-28T02:53:21;8.70;65.90
11140;DHT22;5624;49.388;11.350;2023-04-28T02:55:46;8.80;65.60
11140;DHT22;5624;49.388;11.350;2023-04-28T02:58:12;8.80;65.40
11140;DHT22;5624;49.388;11.350;2023-04-28T03:00:38;8.80;65.70
11140;DHT22;5624;49.388;11.350;2023-04-28T03:03:04;8.80;65.70
11140;DHT22;5624;49.388;11.350;2023-04-28T03:05:29;8.80;65.70
11140;DHT22;5624;49.388;11.350;2023-04-28T03:07:55;8.80;65.70
11140;DHT22;5624;49.388;11.350;2023-04-28T03:10:21;8.80;65.90
11140;DHT22;5624;49.388;11.350;2023-04-28T03:12:46;8.80;65.70
11140;DHT22;5624;49.388;11.350;2023-04-28T03:15:12;8.80;66.00
11140;DHT22;5624;49.388;11.350;2023-04-28T03:17:37;8.80;65.90
11140;DHT22;5624;49.388;11.350;2023-04-28T03:20:06;8.80;66.10
11140;DHT22;5624;49.388;11.350;2023-04-28T03:22:32;8.80;66.20
11140;DHT22;5624;49.388;11.350;2023-04-28T03:24:58;8.80;66.10
11140;DHT22;5624;49.388;11.350;2023-04-28T03:27:24;8.80;65.90
11140;DHT22;5624;49.388;11.350;2023-04-28T03:29:49;8.90;65.90
11140;DHT22;5624;49.388;11.350;2023-04-28T03:32:15;8.90;65.90
11140;DHT22;5624;49.388;11.350;2023-04-28T03:34:40;8.90;65.60
11140;DHT22;5624;49.388;11.350;2023-04-28T03:37:06;8.90;65.50
11140;DHT22;5624;49.388;11.350;2023-04-28T03:39:32;8.90;65.80
11140;DHT22;5624;49.388;11.350;2023-04-28T03:41:57;8.90;65.60
11140;DHT22;5624;49.388;11.350;2023-04-28T03:44:23;9.00;65.50
11140;DHT22;5624;49.388;11.350;2023-04-28T03:46:48;8.90;65.60
11140;DHT22;5624;49.388;11.350;2023-04-28T03:49:14;8.90;65.50
11140;DHT22;5624;49.388;11.350;2023-04-28T03:51:40;8.90;65.60
11140;DHT22;5624;49.388;11.350;2023-04-28T03:54:06;9.00;65.70
11140;DHT22;5624;49.388;11.350;2023-04-28T03:56:31;9.00;65.30
11140;DHT22;5624;49.388;11.350;2023-04-28T03:58:57;8.90;65.80
11140;DHT22;5624;49.388;11.350;2023-04-28T04:01:23;9.00;65.40
11140;DHT22;5624;49.388;11.350;2023-04-28T04:03:48;9.00;65.70
11140;DHT22;5624;49.388;11.350;2023-04-28T04:06:14;8.90;66.20
11140;DHT22;5624;49.388;11.350;2023-04-28T04:08:40;9.00;65.70
11140;DHT22;5624;49.388;11.350;2023-04-28T04:11:06;9.00;66.10
11140;DHT22;5624;49.388;11.350;2023-04-28T04:13:31;8.90;65.90
11140;DHT22;5624;49.388;11.350;2023-04-28T04:15:57;9.00;66.00
11140;DHT22;5624;49.388;11.350;2023-04-28T04:18:23;9.00;65.80
11140;DHT22;5624;49.388;11.350;2023-04-28T04:20:49;9.10;65.80
11140;DHT22;5624;49.388;11.350;2023-04-28T04:23:15;9.10;65.70
11140;DHT22;5624;49.388;11.350;2023-04-28T04:25:41;9.00;65.80
11140;DHT22;5624;49.388;11.350;2023-04-28T04:28:07;9.00;66.40
11140;DHT22;5624;49.388;11.350;2023-04-28T04:30:32;9.00;66.40
11140;DHT22;5624;49.388;11.350;2023-04-28T04:32:58;9.00;66.00
11140;DHT22;5624;49.388;11.350;2023-04-28T04:35:24;9.00;66.10
11140;DHT22;5624;49.388;11.350;2023-04-28T04:37:50;9.10;65.70
11140;DHT22;5624;49.388;11.350;2023-04-28T04:40:15;9.10;65.80
11140;DHT22;5624;49.388;11.350;2023-04-28T04:42:41;9.10;65.90
11140;DHT22;5624;49.388;11.350;2023-04-28T04:45:07;9.10;66.20
11140;DHT22;5624;49.388;11.350;2023-04-28T04:47:33;9.10;66.10
11140;DHT22;5624;49.388;11.350;2023-04-28T04:49:59;9.20;66.30
11140;DHT22;5624;49.388;11.350;2023-04-28T04:52:24;9.20;66.50
11140;DHT22;5624;49.388;11.350;2023-04-28T04:54:50;9.20;65.90
11140;DHT22;5624;49.388;11.350;2023-04-28T04:57:16;9.30;65.90
11140;DHT22;5624;49.388;11.350;2023-04-28T04:59:41;9.30;65.90
11140;DHT22;5624;49.388;11.350;2023-04-28T05:02:07;9.30;66.20
11140;DHT22;5624;49.388;11.350;2023-04-28T05:04:33;9.30;66.00
11140;DHT22;5624;49.388;11.350;2023-04-28T05:06:58;9.30;67.20
11140;DHT22;5624;49.388;11.350;2023-04-28T05:09:24;9.30;66.60
11140;DHT22;5624;49.388;11.350;2023-04-28T05:11:49;9.40;66.20
11140;DHT22;5624;49.388;11.350;2023-04-28T05:14:15;9.40;67.40
11140;DHT22;5624;49.388;11.350;2023-04-28T05:16:41;9.40;68.60
11140;DHT22;5624;49.388;11.350;2023-04-28T05:19:07;9.40;68.00
11140;DHT22;5624;49.388;11.350;2023-04-28T05:21:33;9.30;68.50
11140;DHT22;5624;49.388;11.350;2023-04-28T05:23:58;9.20;69.30
11140;DHT22;5624;49.388;11.350;2023-04-28T05:26:24;9.20;69.70
11140;DHT22;5624;49.388;11.350;2023-04-28T05:28:50;9.20;69.50
11140;DHT22;5624;49.388;11.350;2023-04-28T05:31:16;9.20;69.50
11140;DHT22;5624;49.388;11.350;2023-04-28T05:33:42;9.20;69.50
11140;DHT22;5624;49.388;11.350;2023-04-28T05:36:08;9.30;69.00
11140;DHT22;5624;49.388;11.350;2023-04-28T05:38:34;9.40;68.30
11140;DHT22;5624;49.388;11.350;2023-04-28T05:41:00;9.40;68.90
11140;DHT22;5624;49.388;11.350;2023-04-28T05:43:26;9.40;67.80
11140;DHT22;5624;49.388;11.350;2023-04-28T05:45:52;9.50;67.70
11140;DHT22;5624;49.388;11.350;2023-04-28T05:48:18;9.40;67.80
11140;DHT22;5624;49.388;11.350;2023-04-28T05:50:44;9.40;68.20
11140;DHT22;5624;49.388;11.350;2023-04-28T05:53:10;9.50;68.10
11140;DHT22;5624;49.388;11.350;2023-04-28T05:55:36;9.50;67.40
11140;DHT22;5624;49.388;11.350;2023-04-28T05:58:02;9.60;67.30
11140;DHT22;5624;49.388;11.350;2023-04-28T06:00:28;9.60;67.30
11140;DHT22;5624;49.388;11.350;2023-04-28T06:02:53;9.50;67.70
11140;DHT22;5624;49.388;11.350;2023-04-28T06:05:19;9.60;67.30
11140;DHT22;5624;49.388;11.350;2023-04-28T06:07:45;9.60;67.70
11140;DHT22;5624;49.388;11.350;2023-04-28T06:10:11;9.60;67.50
11140;DHT22;5624;49.388;11.350;2023-04-28T06:12:37;9.60;68.10
11140;DHT22;5624;49.388;11.350;2023-04-28T06:15:03;9.70;68.20
11140;DHT22;5624;49.388;11.350;2023-04-28T06:17:29;9.80;67.30
11140;DHT22;5624;49.388;11.350;2023-04-28T06:19:57;9.90;67.40
11140;DHT22;5624;49.388;11.350;2023-04-28T06:22:26;10.10;67.80
11140;DHT22;5624;49.388;11.350;2023-04-28T06:24:52;10.10;67.70
11140;DHT22;5624;49.388;11.350;2023-04-28T06:27:17;10.20;67.40
11140;DHT22;5624;49.388;11.350;2023-04-28T06:29:43;10.40;67.40
11140;DHT22;5624;49.388;11.350;2023-04-28T06:32:09;10.50;68.80
11140;DHT22;5624;49.388;11.350;2023-04-28T06:34:36;10.40;67.20
11140;DHT22;5624;49.388;11.350;2023-04-28T06:37:02;10.30;67.40
11140;DHT22;5624;49.388;11.350;2023-04-28T06:39:27;10.10;69.10
11140;DHT22;5624;49.388;11.350;2023-04-28T06:41:53;9.80;70.80
11140;DHT22;5624;49.388;11.350;2023-04-28T06:44:18;9.70;72.00
11140;DHT22;5624;49.388;11.350;2023-04-28T06:46:44;9.70;72.40
11140;DHT22;5624;49.388;11.350;2023-04-28T06:49:10;9.70;73.20
11140;DHT22;5624;49.388;11.350;2023-04-28T06:51:37;9.80;74.30
11140;DHT22;5624;49.388;11.350;2023-04-28T06:54:02;9.80;73.50
11140;DHT22;5624;49.388;11.350;2023-04-28T06:56:28;9.70;74.20
11140;DHT22;5624;49.388;11.350;2023-04-28T06:58:54;9.80;74.50
11140;DHT22;5624;49.388;11.350;2023-04-28T07:01:21;9.70;75.30
11140;DHT22;5624;49.388;11.350;2023-04-28T07:03:47;9.80;75.30
11140;DHT22;5624;49.388;11.350;2023-04-28T07:06:13;9.70;77.00
11140;DHT22;5624;49.388;11.350;2023-04-28T07:08:38;9.80;77.50
11140;DHT22;5624;49.388;11.350;2023-04-28T07:11:04;9.80;77.70
11140;DHT22;5624;49.388;11.350;2023-04-28T07:13:31;9.70;77.80
11140;DHT22;5624;49.388;11.350;2023-04-28T07:15:56;9.60;78.20
11140;DHT22;5624;49.388;11.350;2023-04-28T07:18:22;9.60;78.40
11140;DHT22;5624;49.388;11.350;2023-04-28T07:20:48;9.70;78.90
11140;DHT22;5624;49.388;11.350;2023-04-28T07:23:14;9.60;78.70
11140;DHT22;5624;49.388;11.350;2023-04-28T07:25:39;9.60;79.00
11140;DHT22;5624;49.388;11.350;2023-04-28T07:28:06;9.50;78.90
11140;DHT22;5624;49.388;11.350;2023-04-28T07:30:32;9.40;79.60
11140;DHT22;5624;49.388;11.350;2023-04-28T07:32:59;9.50;79.90
11140;DHT22;5624;49.388;11.350;2023-04-28T07:35:25;9.50;80.80
11140;DHT22;5624;49.388;11.350;2023-04-28T07:37:50;9.50;81.20
11140;DHT22;5624;49.388;11.350;2023-04-28T07:40:17;9.50;82.00
11140;DHT22;5624;49.388;11.350;2023-04-28T07:42:43;9.50;82.00
11140;DHT22;5624;49.388;11.350;2023-04-28T07:45:09;9.50;83.00
11140;DHT22;5624;49.388;11.350;2023-04-28T07:47:35;9.60;82.40
11140;DHT22;5624;49.388;11.350;2023-04-28T07:50:01;9.70;81.40
11140;DHT22;5624;49.388;11.350;2023-04-28T07:52:31;9.70;82.80
11140;DHT22;5624;49.388;11.350;2023-04-28T07:54:58;9.70;83.80
11140;DHT22;5624;49.388;11.350;2023-04-28T07:57:24;9.70;84.20
11140;DHT22;5624;49.388;11.350;2023-04-28T07:59:50;9.70;84.50
11140;DHT22;5624;49.388;11.350;2023-04-28T08:02:16;9.50;85.50
11140;DHT22;5624;49.388;11.350;2023-04-28T08:04:41;9.50;86.90
11140;DHT22;5624;49.388;11.350;2023-04-28T08:07:08;9.40;86.80
11140;DHT22;5624;49.388;11.350;2023-04-28T08:09:34;9.30;87.60
11140;DHT22;5624;49.388;11.350;2023-04-28T08:12:00;9.30;88.30
11140;DHT22;5624;49.388;11.350;2023-04-28T08:14:26;9.30;89.40
11140;DHT22;5624;49.388;11.350;2023-04-28T08:16:52;9.30;89.30
11140;DHT22;5624;49.388;11.350;2023-04-28T08:19:18;9.30;88.50
11140;DHT22;5624;49.388;11.350;2023-04-28T08:21:43;9.20;89.10
11140;DHT22;5624;49.388;11.350;2023-04-28T08:24:09;9.10;90.90
11140;DHT22;5624;49.388;11.350;2023-04-28T08:26:36;9.10;92.20
11140;DHT22;5624;49.388;11.350;2023-04-28T08:29:01;9.20;91.70
11140;DHT22;5624;49.388;11.350;2023-04-28T08:31:27;9.20;92.50
11140;DHT22;5624;49.388;11.350;2023-04-28T08:33:53;9.20;93.10
11140;DHT22;5624;49.388;11.350;2023-04-28T08:36:18;9.30;92.90
11140;DHT22;5624;49.388;11.350;2023-04-28T08:38:44;9.30;93.00
11140;DHT22;5624;49.388;11.350;2023-04-28T08:41:13;9.30;93.40
11140;DHT22;5624;49.388;11.350;2023-04-28T08:43:39;9.30;93.00
11140;DHT22;5624;49.388;11.350;2023-04-28T08:46:07;9.20;93.30
11140;DHT22;5624;49.388;11.350;2023-04-28T08:48:42;9.20;93.90
11140;DHT22;5624;49.388;11.350;2023-04-28T08:51:14;9.10;94.90
11140;DHT22;5624;49.388;11.350;2023-04-28T08:53:43;9.10;95.70
11140;DHT22;5624;49.388;11.350;2023-04-28T08:56:09;9.00;96.70
11140;DHT22;5624;49.388;11.350;2023-04-28T08:58:38;9.10;97.00
11140;DHT22;5624;49.388;11.350;2023-04-28T09:01:04;9.20;98.00
11140;DHT22;5624;49.388;11.350;2023-04-28T09:03:31;9.40;96.60
11140;DHT22;5624;49.388;11.350;2023-04-28T09:05:57;9.60;97.00
11140;DHT22;5624;49.388;11.350;2023-04-28T09:08:23;10.00;97.20
11140;DHT22;5624;49.388;11.350;2023-04-28T09:11:07;10.20;94.10
11140;DHT22;5624;49.388;11.350;2023-04-28T09:13:34;10.10;92.90
11140;DHT22;5624;49.388;11.350;2023-04-28T09:16:01;10.00;94.30
11140;DHT22;5624;49.388;11.350;2023-04-28T09:18:28;9.90;94.70
11140;DHT22;5624;49.388;11.350;2023-04-28T09:21:05;9.90;94.50
11140;DHT22;5624;49.388;11.350;2023-04-28T09:23:32;9.80;95.30
11140;DHT22;5624;49.388;11.350;2023-04-28T09:26:05;9.70;95.30
11140;DHT22;5624;49.388;11.350;2023-04-28T09:28:33;9.60;96.00
11140;DHT22;5624;49.388;11.350;2023-04-28T09:31:00;9.50;97.10
11140;DHT22;5624;49.388;11.350;2023-04-28T09:33:26;9.40;97.40
11140;DHT22;5624;49.388;11.350;2023-04-28T09:35:52;9.40;98.60
11140;DHT22;5624;49.388;11.350;2023-04-28T09:38:19;9.30;98.50
11140;DHT22;5624;49.388;11.350;2023-04-28T09:40:59;9.20;98.90
11140;DHT22;5624;49.388;11.350;2023-04-28T09:45:56;9.40;99.80
11140;DHT22;5624;49.388;11.350;2023-04-28T09:48:31;9.40;99.40
11140;DHT22;5624;49.388;11.350;2023-04-28T09:50:58;9.40;99.30
11140;DHT22;5624;49.388;11.350;2023-04-28T09:53:27;9.40;99.80
11140;DHT22;5624;49.388;11.350;2023-04-28T09:55:54;9.50;99.90
11140;DHT22;5624;49.388;11.350;2023-04-28T09:58:22;9.60;99.90
11140;DHT22;5624;49.388;11.350;2023-04-28T10:00:54;9.70;99.90
11140;DHT22;5624;49.388;11.350;2023-04-28T10:03:24;9.60;98.80
11140;DHT22;5624;49.388;11.350;2023-04-28T10:05:51;9.60;99.10
11140;DHT22;5624;49.388;11.350;2023-04-28T10:08:19;9.60;99.70
11140;DHT22;5624;49.388;11.350;2023-04-28T10:10:46;9.60;99.90
11140;DHT22;5624;49.388;11.350;2023-04-28T10:13:15;9.70;99.90
11140;DHT22;5624;49.388;11.350;2023-04-28T10:15:41;9.70;99.90
11140;DHT22;5624;49.388;11.350;2023-04-28T10:18:07;9.80;99.40
11140;DHT22;5624;49.388;11.350;2023-04-28T10:20:33;9.70;99.90
11140;DHT22;5624;49.388;11.350;2023-04-28T10:25:41;9.90;99.90
11140;DHT22;5624;49.388;11.350;2023-04-28T10:28:08;10.00;99.90
11140;DHT22;5624;49.388;11.350;2023-04-28T10:30:34;10.00;99.90
11140;DHT22;5624;49.388;11.350;2023-04-28T10:40:42;10.30;99.10
11140;DHT22;5624;49.388;11.350;2023-04-28T10:43:13;10.30;99.90
11140;DHT22;5624;49.388;11.350;2023-04-28T10:48:14;10.40;98.40
11140;DHT22;5624;49.388;11.350;2023-04-28T10:58:41;10.60;98.50
11140;DHT22;5624;49.388;11.350;2023-04-28T11:06:33;10.60;99.90
11140;DHT22;5624;49.388;11.350;2023-04-28T11:17:07;10.80;99.90
11140;DHT22;5624;49.388;11.350;2023-04-28T11:22:01;11.10;99.30
11140;DHT22;5624;49.388;11.350;2023-04-28T11:24:28;11.10;98.80
11140;DHT22;5624;49.388;11.350;2023-04-28T11:26:58;11.20;96.40
11140;DHT22;5624;49.388;11.350;2023-04-28T11:29:35;11.30;97.90
11140;DHT22;5624;49.388;11.350;2023-04-28T11:32:06;11.40;96.60
11140;DHT22;5624;49.388;11.350;2023-04-28T11:34:32;11.60;96.00
11140;DHT22;5624;49.388;11.350;2023-04-28T11:36:58;11.50;95.70
11140;DHT22;5624;49.388;11.350;2023-04-28T11:39:29;11.50;95.80
11140;DHT22;5624;49.388;11.350;2023-04-28T11:41:58;11.60;95.40
11140;DHT22;5624;49.388;11.350;2023-04-28T11:44:26;11.60;95.50
11140;DHT22;5624;49.388;11.350;2023-04-28T11:46:57;11.60;95.50
11140;DHT22;5624;49.388;11.350;2023-04-28T11:52:07;11.70;96.30
11140;DHT22;5624;49.388;11.350;2023-04-28T11:54:34;11.70;94.60
11140;DHT22;5624;49.388;11.350;2023-04-28T11:57:00;11.80;94.20
11140;DHT22;5624;49.388;11.350;2023-04-28T11:59:29;11.80;93.30
11140;DHT22;5624;49.388;11.350;2023-04-28T12:02:05;11.70;93.90
11140;DHT22;5624;49.388;11.350;2023-04-28T12:04:40;11.80;94.30
11140;DHT22;5624;49.388;11.350;2023-04-28T12:07:08;11.90;94.30
11140;DHT22;5624;49.388;11.350;2023-04-28T12:12:06;12.30;92.70
11140;DHT22;5624;49.388;11.350;2023-04-28T12:14:52;12.40;91.80
11140;DHT22;5624;49.388;11.350;2023-04-28T12:17:24;12.40;91.80
11140;DHT22;5624;49.388;11.350;2023-04-28T12:19:51;12.50;92.50
11140;DHT22;5624;49.388;11.350;2023-04-28T12:22:17;12.90;90.60
11140;DHT22;5624;49.388;11.350;2023-04-28T12:24:42;13.20;91.10
11140;DHT22;5624;49.388;11.350;2023-04-28T12:27:14;13.30;89.10
11140;DHT22;5624;49.388;11.350;2023-04-28T12:29:43;13.40;88.30
11140;DHT22;5624;49.388;11.350;2023-04-28T12:32:11;13.30;87.50
11140;DHT22;5624;49.388;11.350;2023-04-28T12:34:37;13.30;88.30
11140;DHT22;5624;49.388;11.350;2023-04-28T12:37:06;13.10;89.60
11140;DHT22;5624;49.388;11.350;2023-04-28T12:39:35;13.10;89.00
11140;DHT22;5624;49.388;11.350;2023-04-28T12:42:02;12.90;89.80
11140;DHT22;5624;49.388;11.350;2023-04-28T12:44:32;12.90;91.40
11140;DHT22;5624;49.388;11.350;2023-04-28T12:47:07;12.90;91.80
11140;DHT22;5624;49.388;11.350;2023-04-28T12:49:36;13.10;91.90
11140;DHT22;5624;49.388;11.350;2023-04-28T12:52:03;13.30;91.80
11140;DHT22;5624;49.388;11.350;2023-04-28T12:54:29;13.30;91.60
11140;DHT22;5624;49.388;11.350;2023-04-28T12:56:55;13.50;91.10
11140;DHT22;5624;49.388;11.350;2023-04-28T12:59:21;13.70;92.30
11140;DHT22;5624;49.388;11.350;2023-04-28T13:01:48;14.30;90.90
11140;DHT22;5624;49.388;11.350;2023-04-28T13:04:13;14.40;88.90
11140;DHT22;5624;49.388;11.350;2023-04-28T13:06:39;14.70;85.90
11140;DHT22;5624;49.388;11.350;2023-04-28T13:09:10;14.90;84.80
11140;DHT22;5624;49.388;11.350;2023-04-28T13:11:35;15.20;84.80
11140;DHT22;5624;49.388;11.350;2023-04-28T13:14:01;15.10;85.30
11140;DHT22;5624;49.388;11.350;2023-04-28T13:16:28;15.30;85.00
11140;DHT22;5624;49.388;11.350;2023-04-28T13:18:57;15.40;83.60
11140;DHT22;5624;49.388;11.350;2023-04-28T13:21:24;15.20;84.20
11140;DHT22;5624;49.388;11.350;2023-04-28T13:23:54;15.30;83.30
11140;DHT22;5624;49.388;11.350;2023-04-28T13:26:21;14.70;84.40
11140;DHT22;5624;49.388;11.350;2023-04-28T13:28:49;14.40;85.90
11140;DHT22;5624;49.388;11.350;2023-04-28T13:31:18;14.30;86.50
11140;DHT22;5624;49.388;11.350;2023-04-28T13:33:44;14.20;87.50
11140;DHT22;5624;49.388;11.350;2023-04-28T13:36:09;14.00;88.60
11140;DHT22;5624;49.388;11.350;2023-04-28T13:38:35;13.90;89.20
11140;DHT22;5624;49.388;11.350;2023-04-28T13:41:01;13.80;89.70
11140;DHT22;5624;49.388;11.350;2023-04-28T13:43:27;13.80;91.00
11140;DHT22;5624;49.388;11.350;2023-04-28T13:45:52;13.70;90.40
11140;DHT22;5624;49.388;11.350;2023-04-28T13:48:18;13.70;91.30
11140;DHT22;5624;49.388;11.350;2023-04-28T13:50:44;13.90;92.00
11140;DHT22;5624;49.388;11.350;2023-04-28T13:53:10;14.30;91.70
11140;DHT22;5624;49.388;11.350;2023-04-28T13:55:36;14.50;89.20
11140;DHT22;5624;49.388;11.350;2023-04-28T13:58:02;14.60;90.00
11140;DHT22;5624;49.388;11.350;2023-04-28T14:00:30;14.90;87.80
11140;DHT22;5624;49.388;11.350;2023-04-28T14:02:57;15.10;87.90
11140;DHT22;5624;49.388;11.350;2023-04-28T14:05:22;15.20;86.40
11140;DHT22;5624;49.388;11.350;2023-04-28T14:07:48;15.40;86.10
11140;DHT22;5624;49.388;11.350;2023-04-28T14:10:14;15.50;84.70
11140;DHT22;5624;49.388;11.350;2023-04-28T14:12:39;15.40;84.70
11140;DHT22;5624;49.388;11.350;2023-04-28T14:15:05;15.60;84.10
11140;DHT22;5624;49.388;11.350;2023-04-28T14:17:32;15.60;82.80
11140;DHT22;5624;49.388;11.350;2023-04-28T14:20:02;15.30;83.90
11140;DHT22;5624;49.388;11.350;2023-04-28T14:22:28;15.10;85.00
11140;DHT22;5624;49.388;11.350;2023-04-28T14:24:54;15.10;85.40
11140;DHT22;5624;49.388;11.350;2023-04-28T14:27:20;15.00;86.80
11140;DHT22;5624;49.388;11.350;2023-04-28T14:29:46;15.00;86.30
11140;DHT22;5624;49.388;11.350;2023-04-28T14:32:13;15.00;86.40
11140;DHT22;5624;49.388;11.350;2023-04-28T14:34:41;15.10;86.50
11140;DHT22;5624;49.388;11.350;2023-04-28T14:37:06;15.20;86.50
11140;DHT22;5624;49.388;11.350;2023-04-28T14:39:32;15.10;86.60
11140;DHT22;5624;49.388;11.350;2023-04-28T14:41:57;15.00;86.20
11140;DHT22;5624;49.388;11.350;2023-04-28T14:44:23;15.00;86.30
11140;DHT22;5624;49.388;11.350;2023-04-28T14:46:49;15.00;87.30
11140;DHT22;5624;49.388;11.350;2023-04-28T14:49:14;14.90;86.90
11140;DHT22;5624;49.388;11.350;2023-04-28T14:51:40;14.80;86.60
11140;DHT22;5624;49.388;11.350;2023-04-28T14:54:07;14.90;87.10
11140;DHT22;5624;49.388;11.350;2023-04-28T14:56:33;14.90;86.90
11140;DHT22;5624;49.388;11.350;2023-04-28T14:58:59;14.80;87.50
11140;DHT22;5624;49.388;11.350;2023-04-28T15:01:25;14.70;88.00
11140;DHT22;5624;49.388;11.350;2023-04-28T15:03:50;14.50;88.30
11140;DHT22;5624;49.388;11.350;2023-04-28T15:06:16;14.40;89.50
11140;DHT22;5624;49.388;11.350;2023-04-28T15:08:42;14.30;89.90
11140;DHT22;5624;49.388;11.350;2023-04-28T15:11:07;14.20;90.60
11140;DHT22;5624;49.388;11.350;2023-04-28T15:13:33;14.20;90.90
11140;DHT22;5624;49.388;11.350;2023-04-28T15:15:59;14.20;91.40
11140;DHT22;5624;49.388;11.350;2023-04-28T15:18:24;14.30;91.80
11140;DHT22;5624;49.388;11.350;2023-04-28T15:20:50;14.40;91.30
11140;DHT22;5624;49.388;11.350;2023-04-28T15:23:16;14.40;90.70
11140;DHT22;5624;49.388;11.350;2023-04-28T15:25:42;14.40;91.00
11140;DHT22;5624;49.388;11.350;2023-04-28T15:28:07;14.30;91.60
11140;DHT22;5624;49.388;11.350;2023-04-28T15:30:33;14.30;91.70
11140;DHT22;5624;49.388;11.350;2023-04-28T15:32:59;14.20;92.10
11140;DHT22;5624;49.388;11.350;2023-04-28T15:35:24;14.00;92.50
11140;DHT22;5624;49.388;11.350;2023-04-28T15:37:50;14.00;93.30
11140;DHT22;5624;49.388;11.350;2023-04-28T15:40:17;13.90;93.70
11140;DHT22;5624;49.388;11.350;2023-04-28T15:42:44;13.70;94.30
11140;DHT22;5624;49.388;11.350;2023-04-28T15:45:15;13.70;94.80
11140;DHT22;5624;49.388;11.350;2023-04-28T15:47:42;13.60;95.40
11140;DHT22;5624;49.388;11.350;2023-04-28T15:50:08;13.70;96.00
11140;DHT22;5624;49.388;11.350;2023-04-28T15:52:37;13.80;96.50
11140;DHT22;5624;49.388;11.350;2023-04-28T15:55:04;13.90;96.80
11140;DHT22;5624;49.388;11.350;2023-04-28T15:57:30;14.20;96.90
11140;DHT22;5624;49.388;11.350;2023-04-28T15:59:56;14.40;95.30
11140;DHT22;5624;49.388;11.350;2023-04-28T16:02:22;14.60;93.90
11140;DHT22;5624;49.388;11.350;2023-04-28T16:04:47;14.70;94.00
11140;DHT22;5624;49.388;11.350;2023-04-28T16:07:13;14.80;92.60
11140;DHT22;5624;49.388;11.350;2023-04-28T16:09:38;14.80;91.80
11140;DHT22;5624;49.388;11.350;2023-04-28T16:12:04;14.80;92.20
11140;DHT22;5624;49.388;11.350;2023-04-28T16:14:29;14.80;91.70
11140;DHT22;5624;49.388;11.350;2023-04-28T16:16:55;14.60;91.90
11140;DHT22;5624;49.388;11.350;2023-04-28T16:19:21;14.50;92.30